createdAt,value
2022-10-04T00:01:58.364Z,6.68
2022-10-04T00:04:51.727Z,6.25
2022-10-04T00:07:24.099Z,6.60
2022-10-04T00:09:57.546Z,10.10
2022-10-04T00:12:51.577Z,7.53
2022-10-04T00:15:27.753Z,5.80
2022-10-04T00:18:12.400Z,7.63
2022-10-04T00:20:53.100Z,6.00
2022-10-04T00:23:26.280Z,5.63
2022-10-04T00:25:59.021Z,7.45
2022-10-04T00:28:26.110Z,6.60
2022-10-04T00:31:18.943Z,7.13
2022-10-04T00:34:10.247Z,10.77
2022-10-04T00:36:48.399Z,9.70
2022-10-04T00:39:41.593Z,7.50
2022-10-04T00:43:04.874Z,5.45
2022-10-04T00:45:46.945Z,7.43
2022-10-04T00:48:30.489Z,4.53
2022-10-04T00:51:42.634Z,7.20
2022-10-04T00:54:20.003Z,6.90
2022-10-04T00:57:00.875Z,7.33
2022-10-04T00:59:44.876Z,5.88
2022-10-04T01:02:39.218Z,4.65
2022-10-04T01:05:18.110Z,4.03
2022-10-04T01:08:13.617Z,9.50
2022-10-04T01:10:52.780Z,6.05
2022-10-04T01:13:25.358Z,8.52
2022-10-04T01:16:07.700Z,9.77
2022-10-04T01:18:36.462Z,10.98
2022-10-04T01:21:19.603Z,6.10
2022-10-04T01:23:57.286Z,6.03
2022-10-04T01:26:39.595Z,6.60
2022-10-04T01:29:25.067Z,3.43
2022-10-04T01:31:55.987Z,10.93
2022-10-04T01:34:29.236Z,5.88
2022-10-04T01:36:59.502Z,3.92
2022-10-04T01:39:28.784Z,5.63
2022-10-04T01:42:37.439Z,7.05
2022-10-04T01:45:34.267Z,9.63
2022-10-04T01:48:09.776Z,8.95
2022-10-04T01:50:46.761Z,7.97
2022-10-04T01:53:44.853Z,8.17
2022-10-04T01:56:19.717Z,5.97
2022-10-04T01:59:00.489Z,11.25
2022-10-04T02:02:09.299Z,6.43
2022-10-04T02:04:39.686Z,6.60
2022-10-04T02:07:14.936Z,5.43
2022-10-04T02:09:47.704Z,5.97
2022-10-04T02:12:19.982Z,10.30
2022-10-04T02:14:53.243Z,6.90
2022-10-04T02:17:27.673Z,4.40
2022-10-04T02:19:55.407Z,5.78
2022-10-04T02:22:25.209Z,4.80
2022-10-04T02:24:56.383Z,5.30
2022-10-04T02:27:31.355Z,5.00
2022-10-04T02:30:05.701Z,6.30
2022-10-04T02:32:52.357Z,7.77
2022-10-04T02:35:20.675Z,4.93
2022-10-04T02:37:56.503Z,5.10
2022-10-04T02:40:31.156Z,6.73
2022-10-04T02:43:07.307Z,3.58
2022-10-04T02:45:44.951Z,6.10
2022-10-04T02:48:44.442Z,2.83
2022-10-04T02:51:59.676Z,3.10
2022-10-04T02:54:49.813Z,5.60
2022-10-04T02:57:23.390Z,13.53
2022-10-04T03:00:01.710Z,6.50
2022-10-04T03:02:31.120Z,13.83
2022-10-04T03:05:10.768Z,14.63
2022-10-04T03:07:39.437Z,22.43
2022-10-04T03:10:12.643Z,24.87
2022-10-04T03:12:40.895Z,16.67
2022-10-04T03:15:11.833Z,11.83
2022-10-04T03:17:42.700Z,20.10
2022-10-04T03:20:15.693Z,9.97
2022-10-04T03:22:47.164Z,32.57
2022-10-04T03:25:34.247Z,27.03
2022-10-04T03:28:02.913Z,35.43
2022-10-04T03:30:31.929Z,23.67
2022-10-04T03:32:59.896Z,32.33
2022-10-04T03:35:40.489Z,19.10
2022-10-04T03:38:12.476Z,29.40
2022-10-04T03:40:45.269Z,23.17
2022-10-04T03:43:14.361Z,35.65
2022-10-04T03:45:42.346Z,39.93
2022-10-04T03:48:15.013Z,24.13
2022-10-04T03:50:48.342Z,20.97
2022-10-04T03:53:35.808Z,34.63
2022-10-04T03:56:09.744Z,18.60
2022-10-04T03:58:37.123Z,16.37
2022-10-04T04:01:14.758Z,8.33
2022-10-04T04:03:57.307Z,14.32
2022-10-04T04:06:26.960Z,8.97
2022-10-04T04:08:56.572Z,11.40
2022-10-04T04:11:28.342Z,19.27
2022-10-04T04:14:14.665Z,10.60
2022-10-04T04:16:41.710Z,28.20
2022-10-04T04:19:15.740Z,24.33
2022-10-04T04:21:43.197Z,19.93
2022-10-04T04:24:32.246Z,23.90
2022-10-04T04:27:05.272Z,25.58
2022-10-04T04:30:00.211Z,20.30
2022-10-04T04:32:45.430Z,15.17
2022-10-04T04:35:33.663Z,20.50
2022-10-04T04:38:23.089Z,14.70
2022-10-04T04:40:55.577Z,16.83
2022-10-04T04:43:27.663Z,20.10
2022-10-04T04:46:25.558Z,31.33
2022-10-04T04:48:51.874Z,19.90
2022-10-04T04:51:24.714Z,28.87
2022-10-04T04:53:54.462Z,29.83
2022-10-04T04:56:26.560Z,30.70
2022-10-04T04:58:56.565Z,25.90
2022-10-04T05:01:33.856Z,35.17
2022-10-04T05:04:04.370Z,22.98
2022-10-04T05:06:34.222Z,30.23
2022-10-04T05:09:01.947Z,28.60
2022-10-04T05:11:37.783Z,21.67
2022-10-04T05:14:14.308Z,30.97
2022-10-04T05:16:46.249Z,21.10
2022-10-04T05:19:28.820Z,24.07
2022-10-04T05:22:02.496Z,24.13
2022-10-04T05:24:38.786Z,19.40
2022-10-04T05:27:31.613Z,28.50
2022-10-04T05:30:09.516Z,36.70
2022-10-04T05:33:00.889Z,25.45
2022-10-04T05:35:29.991Z,27.37
2022-10-04T05:38:29.014Z,32.17
2022-10-04T05:41:39.362Z,30.80
2022-10-04T05:44:31.578Z,11.80
2022-10-04T05:47:01.490Z,15.05
2022-10-04T05:49:43.948Z,24.42
2022-10-04T05:52:35.995Z,10.85
2022-10-04T05:55:51.579Z,8.85
2022-10-04T05:58:38.419Z,6.10
2022-10-04T06:01:26.562Z,5.78
2022-10-04T06:04:01.559Z,7.43
2022-10-04T06:06:51.466Z,7.22
2022-10-04T06:09:47.404Z,5.03
2022-10-04T06:12:47.993Z,3.58
2022-10-04T06:15:51.741Z,4.57
2022-10-04T06:19:09.649Z,4.72
2022-10-04T06:22:00.205Z,7.75
2022-10-04T06:24:37.372Z,9.05
2022-10-04T06:27:15.084Z,4.05
2022-10-04T06:30:02.827Z,9.27
2022-10-04T06:33:14.053Z,23.15
2022-10-04T06:36:05.202Z,13.07
2022-10-04T06:39:12.773Z,16.33
2022-10-04T06:42:15.259Z,7.53
2022-10-04T06:45:05.366Z,8.65
2022-10-04T06:47:49.618Z,10.50
2022-10-04T06:50:35.461Z,6.32
2022-10-04T06:53:11.759Z,11.18
2022-10-04T06:56:09.529Z,4.68
2022-10-04T06:59:09.777Z,11.07
2022-10-04T07:01:47.525Z,19.25
2022-10-04T07:05:06.548Z,8.80
2022-10-04T07:07:41.998Z,11.48
2022-10-04T07:10:18.053Z,13.25
2022-10-04T07:13:11.195Z,9.00
2022-10-04T07:15:59.644Z,7.90
2022-10-04T07:18:55.162Z,6.95
2022-10-04T07:21:26.276Z,6.65
2022-10-04T07:24:03.948Z,8.85
2022-10-04T07:26:48.816Z,5.90
2022-10-04T07:29:41.886Z,4.30
2022-10-04T07:32:28.961Z,3.38
2022-10-04T07:35:04.425Z,5.30
2022-10-04T07:37:46.347Z,7.45
2022-10-04T07:40:56.517Z,6.53
2022-10-04T07:43:34.177Z,3.35
2022-10-04T07:46:59.373Z,8.77
2022-10-04T07:49:27.170Z,7.53
2022-10-04T07:52:26.722Z,10.30
2022-10-04T07:55:15.124Z,10.07
2022-10-04T07:58:02.146Z,4.65
2022-10-04T08:01:01.705Z,3.33
2022-10-04T08:04:05.402Z,4.63
2022-10-04T08:06:58.116Z,5.03
2022-10-04T08:09:55.213Z,6.13
2022-10-04T08:12:34.738Z,7.05
2022-10-04T08:15:13.894Z,4.80
2022-10-04T08:18:23.442Z,4.88
2022-10-04T08:21:07.157Z,8.02
2022-10-04T08:24:07.237Z,6.45
2022-10-04T08:27:00.772Z,5.35
2022-10-04T08:30:08.065Z,3.05
2022-10-04T08:33:07.684Z,9.40
2022-10-04T08:35:53.878Z,5.65
2022-10-04T08:38:34.863Z,8.02
2022-10-04T08:41:27.007Z,5.70
2022-10-04T08:44:20.747Z,21.17
2022-10-04T08:47:45.987Z,5.50
2022-10-04T08:51:07.262Z,8.75
2022-10-04T08:53:49.003Z,3.95
2022-10-04T08:56:43.780Z,9.48
2022-10-04T08:59:51.187Z,5.40
2022-10-04T09:03:06.397Z,8.20
2022-10-04T09:06:00.365Z,4.32
2022-10-04T09:09:46.741Z,5.45
2022-10-04T09:12:51.014Z,9.07
2022-10-04T09:15:44.243Z,2.67
2022-10-04T09:18:51.836Z,5.53
2022-10-04T09:21:46.340Z,4.35
2022-10-04T09:24:47.345Z,2.08
2022-10-04T09:27:54.575Z,5.40
2022-10-04T09:30:49.167Z,4.78
2022-10-04T09:34:17.139Z,12.95
2022-10-04T09:37:16.879Z,8.20
2022-10-04T09:40:42.394Z,9.13
2022-10-04T09:44:00.328Z,3.97
2022-10-04T09:46:47.620Z,10.55
2022-10-04T09:49:37.865Z,5.82
2022-10-04T09:52:30.048Z,4.25
2022-10-04T09:55:41.500Z,6.50
2022-10-04T09:58:30.126Z,9.07
2022-10-04T10:01:09.229Z,6.75
2022-10-04T10:04:05.793Z,3.33
2022-10-04T10:06:49.335Z,2.50
2022-10-04T10:10:09.792Z,2.60
2022-10-04T10:13:33.295Z,4.18
2022-10-04T10:16:21.418Z,5.70
2022-10-04T10:19:27.446Z,5.32
2022-10-04T10:22:52.749Z,4.20
2022-10-04T10:26:04.396Z,2.35
2022-10-04T10:29:18.344Z,1.83
2022-10-04T10:32:16.139Z,4.93
2022-10-04T10:35:29.674Z,5.72
2022-10-04T10:38:25.686Z,2.63
2022-10-04T10:41:22.542Z,4.97
2022-10-04T10:44:02.400Z,2.58
2022-10-04T10:47:09.628Z,6.30
2022-10-04T10:49:54.736Z,2.42
2022-10-04T10:52:42.449Z,4.05
2022-10-04T10:55:38.138Z,1.58
2022-10-04T10:59:05.569Z,5.20
2022-10-04T11:02:42.346Z,4.03
2022-10-04T11:06:03.652Z,2.13
2022-10-04T11:09:17.131Z,4.80
2022-10-04T11:12:21.516Z,5.82
2022-10-04T11:15:29.392Z,4.60
2022-10-04T11:18:02.375Z,5.95
2022-10-04T11:20:53.295Z,2.67
2022-10-04T11:24:13.825Z,5.75
2022-10-04T11:27:47.816Z,7.30
2022-10-04T11:30:25.110Z,1.58
2022-10-04T11:33:20.420Z,1.80
2022-10-04T11:36:22.503Z,10.20
2022-10-04T11:39:23.871Z,6.88
2022-10-04T11:42:21.660Z,8.00
2022-10-04T11:45:33.997Z,3.25
2022-10-04T11:48:27.065Z,5.53
2022-10-04T11:51:35.230Z,2.40
2022-10-04T11:54:45.757Z,2.13
2022-10-04T11:57:44.306Z,8.65
2022-10-04T12:00:20.715Z,5.03
2022-10-04T12:03:35.530Z,5.90
2022-10-04T12:06:39.976Z,9.23
2022-10-04T12:09:40.663Z,6.40
2022-10-04T12:12:54.416Z,5.97
2022-10-04T12:16:01.610Z,2.22
2022-10-04T12:19:07.615Z,2.40
2022-10-04T12:22:30.888Z,3.47
2022-10-04T12:25:28.232Z,7.55
2022-10-04T12:28:32.822Z,3.78
2022-10-04T12:31:33.366Z,5.30
2022-10-04T12:34:14.755Z,3.55
2022-10-04T12:37:13.827Z,3.70
2022-10-04T12:39:58.539Z,4.10
2022-10-04T12:42:45.843Z,10.48
2022-10-04T12:45:54.422Z,14.25
2022-10-04T12:49:00.777Z,15.13
2022-10-04T12:51:53.678Z,9.43
2022-10-04T12:54:47.552Z,12.38
2022-10-04T12:57:38.602Z,11.00
2022-10-04T13:00:23.401Z,12.05
2022-10-04T13:03:14.991Z,9.52
2022-10-04T13:06:06.537Z,3.92
2022-10-04T13:09:02.457Z,3.35
2022-10-04T13:12:00.741Z,4.78
2022-10-04T13:15:24.419Z,3.83
2022-10-04T13:18:26.888Z,4.90
2022-10-04T13:21:07.792Z,7.22
2022-10-04T13:24:15.816Z,2.78
2022-10-04T13:27:16.381Z,3.35
2022-10-04T13:30:14.372Z,2.67
2022-10-04T13:33:23.859Z,3.67
2022-10-04T13:36:19.391Z,9.13
2022-10-04T13:39:09.873Z,5.93
2022-10-04T13:42:23.175Z,2.15
2022-10-04T13:45:20.429Z,3.17
2022-10-04T13:48:12.757Z,2.58
2022-10-04T13:51:16.987Z,2.28
2022-10-04T13:54:49.030Z,1.88
2022-10-04T13:57:41.976Z,3.08
2022-10-04T14:00:20.288Z,3.70
2022-10-04T14:03:30.435Z,3.35
2022-10-04T14:06:19.769Z,9.10
2022-10-04T14:09:05.509Z,2.55
2022-10-04T14:11:50.409Z,3.70
2022-10-04T14:15:03.905Z,5.45
2022-10-04T14:18:21.300Z,6.15
2022-10-04T14:21:36.403Z,4.63
2022-10-04T14:24:57.258Z,2.63
2022-10-04T14:28:15.388Z,2.80
2022-10-04T14:31:13.335Z,3.05
2022-10-04T14:34:38.003Z,3.92
2022-10-04T14:37:46.115Z,4.07
2022-10-04T14:40:34.197Z,3.78
2022-10-04T14:44:01.741Z,4.15
2022-10-04T14:47:11.660Z,4.60
2022-10-04T14:50:13.132Z,4.18
2022-10-04T14:52:58.164Z,3.35
2022-10-04T14:55:57.601Z,3.03
2022-10-04T14:59:19.045Z,4.80
2022-10-04T15:02:01.066Z,4.18
2022-10-04T15:05:13.163Z,4.60
2022-10-04T15:07:47.649Z,6.65
2022-10-04T15:10:33.037Z,2.20
2022-10-04T15:13:39.465Z,5.03
2022-10-04T15:16:37.448Z,6.25
2022-10-04T15:19:11.359Z,5.57
2022-10-04T15:21:59.683Z,6.50
2022-10-04T15:24:30.339Z,5.65
2022-10-04T15:27:29.744Z,6.50
2022-10-04T15:30:20.971Z,4.90
2022-10-04T15:33:03.001Z,7.45
2022-10-04T15:36:06.856Z,5.28
2022-10-04T15:39:05.147Z,2.85
2022-10-04T15:42:01.370Z,3.50
2022-10-04T15:45:00.344Z,3.78
2022-10-04T15:48:35.605Z,5.38
2022-10-04T15:52:03.318Z,4.43
2022-10-04T15:55:26.149Z,3.33
2022-10-04T15:58:35.270Z,5.68
2022-10-04T16:01:47.204Z,6.30
2022-10-04T16:04:44.876Z,3.60
2022-10-04T16:07:40.357Z,4.38
2022-10-04T16:10:47.725Z,8.45
2022-10-04T16:13:17.335Z,7.38
2022-10-04T16:15:50.324Z,6.20
2022-10-04T16:19:02.188Z,4.47
2022-10-04T16:22:15.145Z,7.75
2022-10-04T16:24:50.697Z,6.22
2022-10-04T16:27:55.996Z,6.55
2022-10-04T16:30:30.534Z,6.13
2022-10-04T16:33:09.505Z,5.60
2022-10-04T16:35:52.503Z,6.30
2022-10-04T16:38:28.754Z,6.15
2022-10-04T16:41:28.113Z,9.40
2022-10-04T16:43:56.210Z,8.32
2022-10-04T16:46:46.251Z,7.15
2022-10-04T16:49:38.840Z,7.00
2022-10-04T16:52:36.479Z,8.55
2022-10-04T16:55:33.300Z,9.60
2022-10-04T16:58:27.901Z,8.73
2022-10-04T17:01:34.087Z,5.30
2022-10-04T17:04:41.229Z,16.77
2022-10-04T17:07:13.504Z,15.27
2022-10-04T17:10:38.462Z,7.80
2022-10-04T17:13:35.543Z,8.40
2022-10-04T17:16:39.449Z,6.75
2022-10-04T17:19:45.547Z,9.70
2022-10-04T17:22:42.898Z,14.27
2022-10-04T17:25:25.045Z,12.02
2022-10-04T17:28:43.307Z,11.95
2022-10-04T17:31:27.533Z,13.93
2022-10-04T17:34:39.573Z,10.52
2022-10-04T17:37:32.467Z,15.05
2022-10-04T17:40:33.649Z,12.88
2022-10-04T17:43:43.546Z,14.70
2022-10-04T17:46:47.152Z,12.13
2022-10-04T17:49:41.993Z,10.77
2022-10-04T17:52:50.507Z,14.55
2022-10-04T17:55:28.688Z,14.82
2022-10-04T17:58:08.942Z,9.63
2022-10-04T18:01:08.363Z,11.98
2022-10-04T18:03:54.730Z,14.77
2022-10-04T18:06:55.921Z,19.23
2022-10-04T18:09:45.976Z,16.40
2022-10-04T18:12:42.249Z,22.52
2022-10-04T18:15:29.700Z,17.13
2022-10-04T18:18:41.326Z,14.45
2022-10-04T18:21:31.780Z,12.70
2022-10-04T18:24:22.576Z,14.50
2022-10-04T18:27:05.700Z,11.18
2022-10-04T18:29:50.982Z,15.85
2022-10-04T18:32:45.195Z,11.00
2022-10-04T18:35:34.252Z,24.73
2022-10-04T18:38:25.319Z,65.18
2022-10-04T18:41:07.585Z,57.97
2022-10-04T18:44:00.151Z,45.15
2022-10-04T18:46:41.305Z,22.15
2022-10-04T18:49:26.109Z,15.05
2022-10-04T18:52:22.886Z,18.23
2022-10-04T18:55:58.415Z,14.13
2022-10-04T18:59:18.214Z,15.85
2022-10-04T19:02:43.336Z,17.45
2022-10-04T19:05:27.934Z,18.73
2022-10-04T19:08:29.488Z,16.95
2022-10-04T19:11:36.943Z,16.15
2022-10-04T19:14:36.445Z,18.00
2022-10-04T19:17:26.863Z,18.65
2022-10-04T19:20:23.818Z,17.15
2022-10-04T19:23:37.433Z,17.70
2022-10-04T19:26:53.615Z,16.23
2022-10-04T19:29:59.079Z,19.40
2022-10-04T19:32:42.903Z,18.17
2022-10-04T19:35:55.630Z,19.95
2022-10-04T19:38:56.004Z,16.73
2022-10-04T19:42:11.268Z,22.27
2022-10-04T19:44:56.608Z,14.43
2022-10-04T19:47:57.447Z,17.08
2022-10-04T19:50:32.600Z,15.88
2022-10-04T19:53:12.563Z,15.23
2022-10-04T19:55:57.458Z,18.98
2022-10-04T19:58:58.518Z,16.85
2022-10-04T20:01:26.324Z,18.63
2022-10-04T20:04:12.235Z,15.20
2022-10-04T20:06:49.861Z,18.60
2022-10-04T20:09:41.380Z,22.13
2022-10-04T20:12:35.597Z,22.90
2022-10-04T20:15:17.642Z,23.00
2022-10-04T20:17:47.607Z,20.03
2022-10-04T20:20:36.282Z,18.77
2022-10-04T20:23:03.235Z,19.47
2022-10-04T20:25:45.943Z,14.53
2022-10-04T20:28:32.911Z,27.73
2022-10-04T20:31:02.787Z,21.23
2022-10-04T20:33:46.226Z,21.10
2022-10-04T20:36:46.589Z,17.73
2022-10-04T20:39:41.739Z,17.48
2022-10-04T20:42:33.822Z,19.23
2022-10-04T20:45:09.670Z,16.33
2022-10-04T20:47:52.494Z,17.57
2022-10-04T20:50:39.919Z,19.57
2022-10-04T20:53:17.215Z,22.43
2022-10-04T20:55:46.069Z,18.67
2022-10-04T20:58:35.292Z,22.67
2022-10-04T21:01:35.967Z,20.00
2022-10-04T21:04:30.586Z,21.63
2022-10-04T21:07:06.385Z,19.70
2022-10-04T21:09:36.220Z,15.00
2022-10-04T21:12:05.049Z,20.50
2022-10-04T21:14:37.623Z,22.97
2022-10-04T21:17:25.932Z,17.57
2022-10-04T21:19:52.902Z,17.73
2022-10-04T21:22:25.908Z,20.27
2022-10-04T21:25:02.111Z,21.17
2022-10-04T21:27:34.935Z,17.38
2022-10-04T21:30:05.635Z,19.20
2022-10-04T21:32:37.313Z,19.60
2022-10-04T21:35:06.507Z,29.30
2022-10-04T21:37:34.597Z,19.67
2022-10-04T21:40:01.887Z,19.33
2022-10-04T21:42:28.806Z,17.27
2022-10-04T21:44:55.711Z,20.83
2022-10-04T21:47:22.764Z,21.63
2022-10-04T21:49:51.895Z,18.37
2022-10-04T21:52:19.198Z,22.93
2022-10-04T21:54:46.632Z,17.37
2022-10-04T21:57:14.093Z,19.23
2022-10-04T21:59:40.989Z,21.37
2022-10-04T22:02:08.400Z,23.00
2022-10-04T22:04:35.385Z,19.57
2022-10-04T22:07:02.310Z,20.97
2022-10-04T22:09:29.268Z,19.03
2022-10-04T22:11:56.279Z,18.33
2022-10-04T22:14:23.275Z,18.93
2022-10-04T22:16:50.942Z,20.80
2022-10-04T22:19:18.186Z,18.10
2022-10-04T22:21:45.096Z,19.37
2022-10-04T22:24:19.881Z,20.23
2022-10-04T22:26:47.339Z,16.07
2022-10-04T22:29:17.506Z,24.37
2022-10-04T22:31:51.368Z,16.30
2022-10-04T22:34:22.802Z,25.20
2022-10-04T22:36:52.103Z,20.80
2022-10-04T22:39:20.830Z,18.73
2022-10-04T22:41:53.733Z,19.97
2022-10-04T22:44:34.618Z,21.90
2022-10-04T22:47:09.869Z,20.43
2022-10-04T22:49:40.212Z,21.07
2022-10-04T22:52:15.488Z,22.57
2022-10-04T22:54:46.981Z,18.20
2022-10-04T22:57:15.949Z,22.40
2022-10-04T22:59:52.795Z,18.77
2022-10-04T23:02:28.547Z,17.77
2022-10-04T23:05:18.991Z,18.67
2022-10-04T23:07:47.406Z,18.40
2022-10-04T23:10:17.742Z,17.87
2022-10-04T23:12:51.577Z,22.20
2022-10-04T23:15:21.059Z,15.80
2022-10-04T23:17:55.465Z,20.47
2022-10-04T23:20:23.261Z,19.80
2022-10-04T23:22:54.282Z,24.23
2022-10-04T23:25:28.267Z,24.30
2022-10-04T23:28:24.775Z,22.00
2022-10-04T23:31:06.156Z,24.30
2022-10-04T23:33:33.095Z,18.80
2022-10-04T23:36:00.090Z,22.53
2022-10-04T23:38:29.309Z,19.50
2022-10-04T23:40:56.285Z,14.83
2022-10-04T23:43:25.754Z,21.03
2022-10-04T23:45:56.217Z,18.47
2022-10-04T23:48:26.868Z,19.47
2022-10-04T23:50:56.453Z,16.60
2022-10-04T23:53:30.717Z,15.13
2022-10-04T23:56:02.662Z,16.17
2022-10-04T23:58:35.886Z,25.70
